sensor_id;sensor_type;location;lat;lon;timestamp;P1;durP1;ratioP1;P2;durP2;ratioP2
11247;SDS011;5681;53.316;13.950;2022-10-31T00:01:48;22.13;;;13.00;;
11247;SDS011;5681;53.316;13.950;2022-10-31T00:04:15;22.58;;;13.65;;
11247;SDS011;5681;53.316;13.950;2022-10-31T00:06:41;20.42;;;13.98;;
11247;SDS011;5681;53.316;13.950;2022-10-31T00:09:09;15.95;;;13.05;;
11247;SDS011;5681;53.316;13.950;2022-10-31T00:11:35;16.67;;;13.18;;
11247;SDS011;5681;53.316;13.950;2022-10-31T00:14:03;18.92;;;12.50;;
11247;SDS011;5681;53.316;13.950;2022-10-31T00:16:30;14.65;;;11.35;;
11247;SDS011;5681;53.316;13.950;2022-10-31T00:18:57;16.80;;;11.98;;
11247;SDS011;5681;53.316;13.950;2022-10-31T00:21:24;18.42;;;13.85;;
11247;SDS011;5681;53.316;13.950;2022-10-31T00:23:51;17.80;;;14.23;;
11247;SDS011;5681;53.316;13.950;2022-10-31T00:26:18;25.65;;;15.10;;
11247;SDS011;5681;53.316;13.950;2022-10-31T00:28:44;16.45;;;12.52;;
11247;SDS011;5681;53.316;13.950;2022-10-31T00:31:12;19.25;;;13.23;;
11247;SDS011;5681;53.316;13.950;2022-10-31T00:33:39;17.58;;;11.82;;
11247;SDS011;5681;53.316;13.950;2022-10-31T00:36:07;15.85;;;11.45;;
11247;SDS011;5681;53.316;13.950;2022-10-31T00:38:34;18.88;;;12.35;;
11247;SDS011;5681;53.316;13.950;2022-10-31T00:41:00;16.67;;;13.15;;
11247;SDS011;5681;53.316;13.950;2022-10-31T00:43:26;22.08;;;13.32;;
11247;SDS011;5681;53.316;13.950;2022-10-31T00:45:53;17.77;;;12.45;;
11247;SDS011;5681;53.316;13.950;2022-10-31T00:48:21;17.98;;;12.80;;
11247;SDS011;5681;53.316;13.950;2022-10-31T00:50:47;15.38;;;10.98;;
11247;SDS011;5681;53.316;13.950;2022-10-31T00:53:13;16.05;;;11.70;;
11247;SDS011;5681;53.316;13.950;2022-10-31T00:55:40;24.02;;;15.27;;
11247;SDS011;5681;53.316;13.950;2022-10-31T00:58:06;19.73;;;13.35;;
11247;SDS011;5681;53.316;13.950;2022-10-31T01:00:32;22.45;;;13.90;;
11247;SDS011;5681;53.316;13.950;2022-10-31T01:02:59;24.65;;;14.50;;
11247;SDS011;5681;53.316;13.950;2022-10-31T01:05:27;25.23;;;14.30;;
11247;SDS011;5681;53.316;13.950;2022-10-31T01:07:53;16.77;;;12.43;;
11247;SDS011;5681;53.316;13.950;2022-10-31T01:10:19;18.92;;;11.68;;
11247;SDS011;5681;53.316;13.950;2022-10-31T01:12:47;16.33;;;11.27;;
11247;SDS011;5681;53.316;13.950;2022-10-31T01:15:14;15.13;;;10.85;;
11247;SDS011;5681;53.316;13.950;2022-10-31T01:17:42;15.02;;;10.40;;
11247;SDS011;5681;53.316;13.950;2022-10-31T01:20:09;17.75;;;11.52;;
11247;SDS011;5681;53.316;13.950;2022-10-31T01:22:38;16.65;;;12.20;;
11247;SDS011;5681;53.316;13.950;2022-10-31T01:25:05;17.23;;;11.27;;
11247;SDS011;5681;53.316;13.950;2022-10-31T01:27:32;25.10;;;14.45;;
11247;SDS011;5681;53.316;13.950;2022-10-31T01:29:59;18.55;;;12.52;;
11247;SDS011;5681;53.316;13.950;2022-10-31T01:32:26;17.20;;;12.40;;
11247;SDS011;5681;53.316;13.950;2022-10-31T01:34:53;17.85;;;11.43;;
11247;SDS011;5681;53.316;13.950;2022-10-31T01:37:20;19.75;;;12.30;;
11247;SDS011;5681;53.316;13.950;2022-10-31T01:39:48;17.73;;;12.13;;
11247;SDS011;5681;53.316;13.950;2022-10-31T01:42:16;18.48;;;12.80;;
11247;SDS011;5681;53.316;13.950;2022-10-31T01:44:48;17.75;;;13.10;;
11247;SDS011;5681;53.316;13.950;2022-10-31T01:47:17;18.58;;;11.32;;
11247;SDS011;5681;53.316;13.950;2022-10-31T01:49:46;14.15;;;11.38;;
11247;SDS011;5681;53.316;13.950;2022-10-31T01:52:16;21.17;;;13.18;;
11247;SDS011;5681;53.316;13.950;2022-10-31T01:54:48;19.20;;;13.00;;
11247;SDS011;5681;53.316;13.950;2022-10-31T01:57:17;21.02;;;12.52;;
11247;SDS011;5681;53.316;13.950;2022-10-31T01:59:46;22.90;;;13.45;;
11247;SDS011;5681;53.316;13.950;2022-10-31T02:02:14;19.70;;;13.73;;
11247;SDS011;5681;53.316;13.950;2022-10-31T02:04:40;22.77;;;14.20;;
11247;SDS011;5681;53.316;13.950;2022-10-31T02:07:08;23.42;;;13.85;;
11247;SDS011;5681;53.316;13.950;2022-10-31T02:09:36;21.60;;;15.35;;
11247;SDS011;5681;53.316;13.950;2022-10-31T02:12:05;22.67;;;14.30;;
11247;SDS011;5681;53.316;13.950;2022-10-31T02:14:32;13.85;;;12.27;;
11247;SDS011;5681;53.316;13.950;2022-10-31T02:16:59;17.92;;;11.65;;
11247;SDS011;5681;53.316;13.950;2022-10-31T02:19:27;16.98;;;12.90;;
11247;SDS011;5681;53.316;13.950;2022-10-31T02:21:58;18.65;;;13.02;;
11247;SDS011;5681;53.316;13.950;2022-10-31T02:24:40;21.05;;;13.82;;
11247;SDS011;5681;53.316;13.950;2022-10-31T02:27:25;17.98;;;13.70;;
11247;SDS011;5681;53.316;13.950;2022-10-31T02:30:07;15.27;;;12.68;;
11247;SDS011;5681;53.316;13.950;2022-10-31T02:32:40;15.75;;;11.75;;
11247;SDS011;5681;53.316;13.950;2022-10-31T02:35:10;13.55;;;12.07;;
11247;SDS011;5681;53.316;13.950;2022-10-31T02:37:42;15.32;;;11.73;;
11247;SDS011;5681;53.316;13.950;2022-10-31T02:40:14;16.67;;;12.43;;
11247;SDS011;5681;53.316;13.950;2022-10-31T02:42:45;13.68;;;12.15;;
11247;SDS011;5681;53.316;13.950;2022-10-31T02:45:14;14.45;;;12.18;;
11247;SDS011;5681;53.316;13.950;2022-10-31T02:47:49;17.80;;;12.95;;
11247;SDS011;5681;53.316;13.950;2022-10-31T02:50:18;15.68;;;11.82;;
11247;SDS011;5681;53.316;13.950;2022-10-31T02:52:49;14.88;;;10.98;;
11247;SDS011;5681;53.316;13.950;2022-10-31T02:58:09;32.70;;;10.95;;
11247;SDS011;5681;53.316;13.950;2022-10-31T03:00:38;71.75;;;11.40;;
11247;SDS011;5681;53.316;13.950;2022-10-31T03:03:10;78.78;;;11.30;;
11247;SDS011;5681;53.316;13.950;2022-10-31T03:05:41;20.55;;;10.73;;
11247;SDS011;5681;53.316;13.950;2022-10-31T03:08:15;11.50;;;10.35;;
11247;SDS011;5681;53.316;13.950;2022-10-31T03:10:45;14.55;;;10.48;;
11247;SDS011;5681;53.316;13.950;2022-10-31T03:13:16;20.27;;;10.30;;
11247;SDS011;5681;53.316;13.950;2022-10-31T03:15:48;23.85;;;10.93;;
11247;SDS011;5681;53.316;13.950;2022-10-31T03:18:17;16.27;;;12.10;;
11247;SDS011;5681;53.316;13.950;2022-10-31T03:20:50;11.13;;;10.02;;
11247;SDS011;5681;53.316;13.950;2022-10-31T03:23:20;12.10;;;10.90;;
11247;SDS011;5681;53.316;13.950;2022-10-31T03:25:48;11.02;;;9.77;;
11247;SDS011;5681;53.316;13.950;2022-10-31T03:28:15;16.17;;;11.07;;
11247;SDS011;5681;53.316;13.950;2022-10-31T03:30:44;10.70;;;9.60;;
11247;SDS011;5681;53.316;13.950;2022-10-31T03:33:13;11.20;;;10.02;;
11247;SDS011;5681;53.316;13.950;2022-10-31T03:35:42;12.57;;;10.55;;
11247;SDS011;5681;53.316;13.950;2022-10-31T03:38:11;10.85;;;9.23;;
11247;SDS011;5681;53.316;13.950;2022-10-31T03:40:39;14.57;;;10.88;;
11247;SDS011;5681;53.316;13.950;2022-10-31T03:43:08;12.88;;;10.68;;
11247;SDS011;5681;53.316;13.950;2022-10-31T03:45:38;18.23;;;14.70;;
11247;SDS011;5681;53.316;13.950;2022-10-31T03:48:06;22.10;;;17.77;;
11247;SDS011;5681;53.316;13.950;2022-10-31T03:50:35;26.90;;;19.13;;
11247;SDS011;5681;53.316;13.950;2022-10-31T03:53:06;32.53;;;18.20;;
11247;SDS011;5681;53.316;13.950;2022-10-31T03:55:39;29.20;;;15.75;;
11247;SDS011;5681;53.316;13.950;2022-10-31T03:58:08;22.70;;;16.35;;
11247;SDS011;5681;53.316;13.950;2022-10-31T04:00:36;28.73;;;17.80;;
11247;SDS011;5681;53.316;13.950;2022-10-31T04:03:05;28.27;;;16.08;;
11247;SDS011;5681;53.316;13.950;2022-10-31T04:05:35;24.65;;;17.00;;
11247;SDS011;5681;53.316;13.950;2022-10-31T04:08:04;24.60;;;18.00;;
11247;SDS011;5681;53.316;13.950;2022-10-31T04:10:34;26.02;;;18.00;;
11247;SDS011;5681;53.316;13.950;2022-10-31T04:13:01;24.77;;;17.50;;
11247;SDS011;5681;53.316;13.950;2022-10-31T04:15:30;19.33;;;15.45;;
11247;SDS011;5681;53.316;13.950;2022-10-31T04:17:58;20.33;;;14.32;;
11247;SDS011;5681;53.316;13.950;2022-10-31T04:20:31;18.48;;;13.95;;
11247;SDS011;5681;53.316;13.950;2022-10-31T04:22:59;18.08;;;13.57;;
11247;SDS011;5681;53.316;13.950;2022-10-31T04:25:27;22.50;;;18.20;;
11247;SDS011;5681;53.316;13.950;2022-10-31T04:27:53;29.40;;;20.55;;
11247;SDS011;5681;53.316;13.950;2022-10-31T04:30:20;28.25;;;19.45;;
11247;SDS011;5681;53.316;13.950;2022-10-31T04:32:46;26.63;;;20.80;;
11247;SDS011;5681;53.316;13.950;2022-10-31T04:35:13;27.67;;;20.98;;
11247;SDS011;5681;53.316;13.950;2022-10-31T04:37:41;28.52;;;21.60;;
11247;SDS011;5681;53.316;13.950;2022-10-31T04:40:07;25.42;;;20.08;;
11247;SDS011;5681;53.316;13.950;2022-10-31T04:42:36;23.67;;;19.58;;
11247;SDS011;5681;53.316;13.950;2022-10-31T04:45:02;26.98;;;20.42;;
11247;SDS011;5681;53.316;13.950;2022-10-31T04:47:30;32.33;;;20.95;;
11247;SDS011;5681;53.316;13.950;2022-10-31T04:49:58;34.47;;;22.55;;
11247;SDS011;5681;53.316;13.950;2022-10-31T04:52:24;33.33;;;21.73;;
11247;SDS011;5681;53.316;13.950;2022-10-31T04:54:50;32.15;;;22.27;;
11247;SDS011;5681;53.316;13.950;2022-10-31T04:57:16;33.28;;;21.92;;
11247;SDS011;5681;53.316;13.950;2022-10-31T04:59:44;29.25;;;21.10;;
11247;SDS011;5681;53.316;13.950;2022-10-31T05:02:10;25.27;;;17.85;;
11247;SDS011;5681;53.316;13.950;2022-10-31T05:04:37;21.42;;;18.58;;
11247;SDS011;5681;53.316;13.950;2022-10-31T05:07:03;29.70;;;19.60;;
11247;SDS011;5681;53.316;13.950;2022-10-31T05:09:29;25.25;;;18.75;;
11247;SDS011;5681;53.316;13.950;2022-10-31T05:11:56;25.10;;;18.55;;
11247;SDS011;5681;53.316;13.950;2022-10-31T05:14:22;26.67;;;19.30;;
11247;SDS011;5681;53.316;13.950;2022-10-31T05:16:50;31.08;;;20.10;;
11247;SDS011;5681;53.316;13.950;2022-10-31T05:19:16;28.05;;;19.83;;
11247;SDS011;5681;53.316;13.950;2022-10-31T05:21:42;23.13;;;17.90;;
11247;SDS011;5681;53.316;13.950;2022-10-31T05:24:09;21.88;;;17.10;;
11247;SDS011;5681;53.316;13.950;2022-10-31T05:26:37;23.05;;;18.33;;
11247;SDS011;5681;53.316;13.950;2022-10-31T05:29:03;25.75;;;18.75;;
11247;SDS011;5681;53.316;13.950;2022-10-31T05:31:29;26.38;;;19.33;;
11247;SDS011;5681;53.316;13.950;2022-10-31T05:33:57;28.83;;;19.40;;
11247;SDS011;5681;53.316;13.950;2022-10-31T05:36:24;31.85;;;20.30;;
11247;SDS011;5681;53.316;13.950;2022-10-31T05:38:50;30.15;;;20.70;;
11247;SDS011;5681;53.316;13.950;2022-10-31T05:41:16;30.15;;;21.05;;
11247;SDS011;5681;53.316;13.950;2022-10-31T05:43:43;27.60;;;21.50;;
11247;SDS011;5681;53.316;13.950;2022-10-31T05:46:09;29.10;;;20.23;;
11247;SDS011;5681;53.316;13.950;2022-10-31T05:48:35;32.38;;;21.83;;
11247;SDS011;5681;53.316;13.950;2022-10-31T05:51:03;29.95;;;21.42;;
11247;SDS011;5681;53.316;13.950;2022-10-31T05:53:30;29.88;;;21.35;;
11247;SDS011;5681;53.316;13.950;2022-10-31T05:55:56;36.33;;;21.80;;
11247;SDS011;5681;53.316;13.950;2022-10-31T05:58:22;24.10;;;18.25;;
11247;SDS011;5681;53.316;13.950;2022-10-31T06:00:48;24.95;;;20.42;;
11247;SDS011;5681;53.316;13.950;2022-10-31T06:03:15;24.85;;;20.15;;
11247;SDS011;5681;53.316;13.950;2022-10-31T06:05:41;24.42;;;20.98;;
11247;SDS011;5681;53.316;13.950;2022-10-31T06:08:09;29.08;;;20.63;;
11247;SDS011;5681;53.316;13.950;2022-10-31T06:10:35;31.00;;;22.98;;
11247;SDS011;5681;53.316;13.950;2022-10-31T06:13:01;31.17;;;21.90;;
11247;SDS011;5681;53.316;13.950;2022-10-31T06:15:28;36.20;;;24.02;;
11247;SDS011;5681;53.316;13.950;2022-10-31T06:17:58;32.13;;;23.05;;
11247;SDS011;5681;53.316;13.950;2022-10-31T06:20:26;28.42;;;22.70;;
11247;SDS011;5681;53.316;13.950;2022-10-31T06:22:52;38.42;;;26.10;;
11247;SDS011;5681;53.316;13.950;2022-10-31T06:25:20;36.60;;;25.40;;
11247;SDS011;5681;53.316;13.950;2022-10-31T06:27:46;32.03;;;25.05;;
11247;SDS011;5681;53.316;13.950;2022-10-31T06:30:13;38.08;;;25.95;;
11247;SDS011;5681;53.316;13.950;2022-10-31T06:32:40;34.75;;;27.08;;
11247;SDS011;5681;53.316;13.950;2022-10-31T06:35:06;36.92;;;25.23;;
11247;SDS011;5681;53.316;13.950;2022-10-31T06:37:35;35.97;;;27.15;;
11247;SDS011;5681;53.316;13.950;2022-10-31T06:40:01;34.95;;;26.70;;
11247;SDS011;5681;53.316;13.950;2022-10-31T06:42:29;43.92;;;29.60;;
11247;SDS011;5681;53.316;13.950;2022-10-31T06:44:56;40.83;;;29.92;;
11247;SDS011;5681;53.316;13.950;2022-10-31T06:47:22;43.67;;;30.23;;
11247;SDS011;5681;53.316;13.950;2022-10-31T06:49:48;36.38;;;27.50;;
11247;SDS011;5681;53.316;13.950;2022-10-31T06:52:15;33.97;;;28.25;;
11247;SDS011;5681;53.316;13.950;2022-10-31T06:54:41;36.63;;;28.20;;
11247;SDS011;5681;53.316;13.950;2022-10-31T06:57:07;39.53;;;28.40;;
11247;SDS011;5681;53.316;13.950;2022-10-31T06:59:35;36.90;;;26.50;;
11247;SDS011;5681;53.316;13.950;2022-10-31T07:02:02;39.65;;;26.85;;
11247;SDS011;5681;53.316;13.950;2022-10-31T07:04:28;41.92;;;27.08;;
11247;SDS011;5681;53.316;13.950;2022-10-31T07:06:54;33.80;;;27.27;;
11247;SDS011;5681;53.316;13.950;2022-10-31T07:09:21;32.85;;;27.30;;
11247;SDS011;5681;53.316;13.950;2022-10-31T07:11:47;35.72;;;27.02;;
11247;SDS011;5681;53.316;13.950;2022-10-31T07:14:13;35.17;;;26.23;;
11247;SDS011;5681;53.316;13.950;2022-10-31T07:16:41;35.60;;;25.05;;
11247;SDS011;5681;53.316;13.950;2022-10-31T07:19:07;30.92;;;23.85;;
11247;SDS011;5681;53.316;13.950;2022-10-31T07:21:34;32.83;;;25.50;;
11247;SDS011;5681;53.316;13.950;2022-10-31T07:24:00;27.65;;;22.98;;
11247;SDS011;5681;53.316;13.950;2022-10-31T07:26:27;32.58;;;23.52;;
11247;SDS011;5681;53.316;13.950;2022-10-31T07:28:53;28.77;;;23.38;;
11247;SDS011;5681;53.316;13.950;2022-10-31T07:31:19;30.58;;;24.25;;
11247;SDS011;5681;53.316;13.950;2022-10-31T07:33:47;27.70;;;21.75;;
11247;SDS011;5681;53.316;13.950;2022-10-31T07:36:14;28.27;;;22.38;;
11247;SDS011;5681;53.316;13.950;2022-10-31T07:38:40;28.73;;;22.17;;
11247;SDS011;5681;53.316;13.950;2022-10-31T07:41:06;31.48;;;22.20;;
11247;SDS011;5681;53.316;13.950;2022-10-31T07:43:33;24.25;;;21.58;;
11247;SDS011;5681;53.316;13.950;2022-10-31T07:46:00;25.77;;;21.17;;
11247;SDS011;5681;53.316;13.950;2022-10-31T07:48:26;25.35;;;20.92;;
11247;SDS011;5681;53.316;13.950;2022-10-31T07:50:54;30.20;;;24.70;;
11247;SDS011;5681;53.316;13.950;2022-10-31T07:53:20;30.02;;;24.48;;
11247;SDS011;5681;53.316;13.950;2022-10-31T07:55:47;30.45;;;24.33;;
11247;SDS011;5681;53.316;13.950;2022-10-31T07:58:14;26.88;;;20.63;;
11247;SDS011;5681;53.316;13.950;2022-10-31T08:00:42;26.50;;;23.30;;
11247;SDS011;5681;53.316;13.950;2022-10-31T08:03:11;31.25;;;21.85;;
11247;SDS011;5681;53.316;13.950;2022-10-31T08:05:38;23.83;;;20.65;;
11247;SDS011;5681;53.316;13.950;2022-10-31T08:08:07;29.75;;;26.52;;
11247;SDS011;5681;53.316;13.950;2022-10-31T08:10:35;33.63;;;30.13;;
11247;SDS011;5681;53.316;13.950;2022-10-31T08:13:02;39.85;;;35.63;;
11247;SDS011;5681;53.316;13.950;2022-10-31T08:15:29;37.83;;;26.77;;
11247;SDS011;5681;53.316;13.950;2022-10-31T08:17:56;66.97;;;59.53;;
11247;SDS011;5681;53.316;13.950;2022-10-31T08:20:23;47.58;;;36.33;;
11247;SDS011;5681;53.316;13.950;2022-10-31T08:22:53;69.40;;;59.05;;
11247;SDS011;5681;53.316;13.950;2022-10-31T08:25:21;27.92;;;21.38;;
11247;SDS011;5681;53.316;13.950;2022-10-31T08:27:49;23.45;;;19.55;;
11247;SDS011;5681;53.316;13.950;2022-10-31T08:30:16;27.20;;;19.23;;
11247;SDS011;5681;53.316;13.950;2022-10-31T08:32:43;24.50;;;20.65;;
11247;SDS011;5681;53.316;13.950;2022-10-31T08:35:09;29.27;;;23.73;;
11247;SDS011;5681;53.316;13.950;2022-10-31T08:37:35;28.30;;;21.75;;
11247;SDS011;5681;53.316;13.950;2022-10-31T08:40:02;23.52;;;20.38;;
11247;SDS011;5681;53.316;13.950;2022-10-31T08:42:30;28.30;;;22.92;;
11247;SDS011;5681;53.316;13.950;2022-10-31T08:44:56;40.75;;;36.53;;
11247;SDS011;5681;53.316;13.950;2022-10-31T08:47:22;26.95;;;22.10;;
11247;SDS011;5681;53.316;13.950;2022-10-31T08:49:49;23.95;;;19.58;;
11247;SDS011;5681;53.316;13.950;2022-10-31T08:52:15;27.52;;;20.02;;
11247;SDS011;5681;53.316;13.950;2022-10-31T08:54:42;30.85;;;22.52;;
11247;SDS011;5681;53.316;13.950;2022-10-31T08:57:08;30.23;;;22.65;;
11247;SDS011;5681;53.316;13.950;2022-10-31T08:59:36;25.63;;;20.10;;
11247;SDS011;5681;53.316;13.950;2022-10-31T09:02:02;25.30;;;20.02;;
11247;SDS011;5681;53.316;13.950;2022-10-31T09:04:28;56.33;;;43.33;;
11247;SDS011;5681;53.316;13.950;2022-10-31T09:06:55;70.93;;;63.42;;
11247;SDS011;5681;53.316;13.950;2022-10-31T09:09:21;26.52;;;20.15;;
11247;SDS011;5681;53.316;13.950;2022-10-31T09:11:48;24.05;;;17.42;;
11247;SDS011;5681;53.316;13.950;2022-10-31T09:14:14;31.52;;;18.15;;
11247;SDS011;5681;53.316;13.950;2022-10-31T09:16:42;24.58;;;16.55;;
11247;SDS011;5681;53.316;13.950;2022-10-31T09:19:08;24.77;;;15.90;;
11247;SDS011;5681;53.316;13.950;2022-10-31T09:21:34;24.40;;;15.35;;
11247;SDS011;5681;53.316;13.950;2022-10-31T09:24:01;20.58;;;15.45;;
11247;SDS011;5681;53.316;13.950;2022-10-31T09:26:27;20.00;;;14.23;;
11247;SDS011;5681;53.316;13.950;2022-10-31T09:28:53;22.83;;;14.48;;
11247;SDS011;5681;53.316;13.950;2022-10-31T09:31:20;20.98;;;14.90;;
11247;SDS011;5681;53.316;13.950;2022-10-31T09:33:48;18.58;;;13.95;;
11247;SDS011;5681;53.316;13.950;2022-10-31T09:36:14;21.98;;;13.15;;
11247;SDS011;5681;53.316;13.950;2022-10-31T09:38:41;16.20;;;13.30;;
11247;SDS011;5681;53.316;13.950;2022-10-31T09:41:08;25.13;;;13.05;;
11247;SDS011;5681;53.316;13.950;2022-10-31T09:43:44;19.40;;;13.60;;
11247;SDS011;5681;53.316;13.950;2022-10-31T09:46:16;16.48;;;13.05;;
11247;SDS011;5681;53.316;13.950;2022-10-31T09:48:52;21.50;;;14.15;;
11247;SDS011;5681;53.316;13.950;2022-10-31T09:51:28;22.38;;;14.50;;
11247;SDS011;5681;53.316;13.950;2022-10-31T09:53:58;21.80;;;13.82;;
11247;SDS011;5681;53.316;13.950;2022-10-31T09:56:27;20.73;;;12.63;;
11247;SDS011;5681;53.316;13.950;2022-10-31T09:58:55;20.27;;;12.98;;
11247;SDS011;5681;53.316;13.950;2022-10-31T10:01:29;20.33;;;13.20;;
11247;SDS011;5681;53.316;13.950;2022-10-31T10:04:00;17.88;;;13.18;;
11247;SDS011;5681;53.316;13.950;2022-10-31T10:06:29;20.42;;;13.70;;
11247;SDS011;5681;53.316;13.950;2022-10-31T10:08:55;19.50;;;12.52;;
11247;SDS011;5681;53.316;13.950;2022-10-31T10:11:39;22.58;;;13.52;;
11247;SDS011;5681;53.316;13.950;2022-10-31T10:14:19;19.35;;;12.23;;
11247;SDS011;5681;53.316;13.950;2022-10-31T10:16:55;16.95;;;12.40;;
11247;SDS011;5681;53.316;13.950;2022-10-31T10:19:38;16.83;;;11.80;;
11247;SDS011;5681;53.316;13.950;2022-10-31T10:22:26;15.65;;;11.57;;
11247;SDS011;5681;53.316;13.950;2022-10-31T10:25:03;20.08;;;12.73;;
11247;SDS011;5681;53.316;13.950;2022-10-31T10:27:41;20.83;;;12.32;;
11247;SDS011;5681;53.316;13.950;2022-10-31T10:30:21;20.40;;;12.82;;
11247;SDS011;5681;53.316;13.950;2022-10-31T10:32:49;21.48;;;11.95;;
11247;SDS011;5681;53.316;13.950;2022-10-31T10:35:21;18.65;;;12.43;;
11247;SDS011;5681;53.316;13.950;2022-10-31T10:37:51;22.23;;;13.55;;
11247;SDS011;5681;53.316;13.950;2022-10-31T10:40:19;17.73;;;11.48;;
11247;SDS011;5681;53.316;13.950;2022-10-31T10:42:50;21.13;;;13.27;;
11247;SDS011;5681;53.316;13.950;2022-10-31T10:45:39;20.38;;;12.15;;
11247;SDS011;5681;53.316;13.950;2022-10-31T10:48:26;16.75;;;11.88;;
11247;SDS011;5681;53.316;13.950;2022-10-31T10:50:58;17.88;;;12.07;;
11247;SDS011;5681;53.316;13.950;2022-10-31T10:53:30;16.63;;;11.43;;
11247;SDS011;5681;53.316;13.950;2022-10-31T10:56:15;17.95;;;12.77;;
11247;SDS011;5681;53.316;13.950;2022-10-31T10:58:43;19.83;;;12.25;;
11247;SDS011;5681;53.316;13.950;2022-10-31T11:01:10;21.65;;;11.98;;
11247;SDS011;5681;53.316;13.950;2022-10-31T11:03:38;27.52;;;12.73;;
11247;SDS011;5681;53.316;13.950;2022-10-31T11:06:15;21.20;;;11.90;;
11247;SDS011;5681;53.316;13.950;2022-10-31T11:08:45;19.00;;;11.73;;
11247;SDS011;5681;53.316;13.950;2022-10-31T11:11:15;17.77;;;11.60;;
11247;SDS011;5681;53.316;13.950;2022-10-31T11:13:50;26.27;;;12.07;;
11247;SDS011;5681;53.316;13.950;2022-10-31T11:16:27;20.63;;;11.45;;
11247;SDS011;5681;53.316;13.950;2022-10-31T11:19:04;18.88;;;11.63;;
11247;SDS011;5681;53.316;13.950;2022-10-31T11:21:34;22.40;;;12.20;;
11247;SDS011;5681;53.316;13.950;2022-10-31T11:24:04;27.13;;;12.68;;
11247;SDS011;5681;53.316;13.950;2022-10-31T11:26:40;17.75;;;11.52;;
11247;SDS011;5681;53.316;13.950;2022-10-31T11:29:11;18.65;;;11.73;;
11247;SDS011;5681;53.316;13.950;2022-10-31T11:31:40;20.05;;;11.95;;
11247;SDS011;5681;53.316;13.950;2022-10-31T11:34:07;21.02;;;12.02;;
11247;SDS011;5681;53.316;13.950;2022-10-31T11:36:43;18.35;;;12.50;;
11247;SDS011;5681;53.316;13.950;2022-10-31T11:39:15;19.05;;;11.45;;
11247;SDS011;5681;53.316;13.950;2022-10-31T11:41:44;18.17;;;11.57;;
11247;SDS011;5681;53.316;13.950;2022-10-31T11:44:12;20.30;;;10.75;;
11247;SDS011;5681;53.316;13.950;2022-10-31T11:46:40;20.42;;;11.70;;
11247;SDS011;5681;53.316;13.950;2022-10-31T11:49:11;21.45;;;12.60;;
11247;SDS011;5681;53.316;13.950;2022-10-31T11:51:42;24.08;;;12.52;;
11247;SDS011;5681;53.316;13.950;2022-10-31T11:54:16;21.80;;;11.38;;
11247;SDS011;5681;53.316;13.950;2022-10-31T11:56:45;24.45;;;12.43;;
11247;SDS011;5681;53.316;13.950;2022-10-31T11:59:16;24.17;;;12.20;;
11247;SDS011;5681;53.316;13.950;2022-10-31T12:01:52;18.95;;;11.60;;
11247;SDS011;5681;53.316;13.950;2022-10-31T12:04:23;18.60;;;11.52;;
11247;SDS011;5681;53.316;13.950;2022-10-31T12:06:56;19.42;;;11.93;;
11247;SDS011;5681;53.316;13.950;2022-10-31T12:09:25;24.85;;;17.30;;
11247;SDS011;5681;53.316;13.950;2022-10-31T12:11:56;20.95;;;12.93;;
11247;SDS011;5681;53.316;13.950;2022-10-31T12:14:33;24.45;;;14.00;;
11247;SDS011;5681;53.316;13.950;2022-10-31T12:17:03;28.08;;;16.30;;
11247;SDS011;5681;53.316;13.950;2022-10-31T12:19:35;21.83;;;14.52;;
11247;SDS011;5681;53.316;13.950;2022-10-31T12:22:12;22.70;;;14.63;;
11247;SDS011;5681;53.316;13.950;2022-10-31T12:24:45;20.48;;;15.02;;
11247;SDS011;5681;53.316;13.950;2022-10-31T12:27:22;24.00;;;14.70;;
11247;SDS011;5681;53.316;13.950;2022-10-31T12:30:02;26.83;;;16.33;;
11247;SDS011;5681;53.316;13.950;2022-10-31T12:32:40;24.13;;;16.55;;
11247;SDS011;5681;53.316;13.950;2022-10-31T12:35:15;30.60;;;19.40;;
11247;SDS011;5681;53.316;13.950;2022-10-31T12:37:52;24.17;;;17.20;;
11247;SDS011;5681;53.316;13.950;2022-10-31T12:40:30;27.52;;;18.17;;
11247;SDS011;5681;53.316;13.950;2022-10-31T12:43:06;23.80;;;16.65;;
11247;SDS011;5681;53.316;13.950;2022-10-31T12:45:44;29.13;;;18.90;;
11247;SDS011;5681;53.316;13.950;2022-10-31T12:48:34;28.98;;;18.65;;
11247;SDS011;5681;53.316;13.950;2022-10-31T12:51:11;29.02;;;20.05;;
11247;SDS011;5681;53.316;13.950;2022-10-31T12:53:46;30.45;;;19.02;;
11247;SDS011;5681;53.316;13.950;2022-10-31T12:56:26;24.85;;;17.20;;
11247;SDS011;5681;53.316;13.950;2022-10-31T12:58:59;25.67;;;17.27;;
11247;SDS011;5681;53.316;13.950;2022-10-31T13:01:29;27.42;;;16.48;;
11247;SDS011;5681;53.316;13.950;2022-10-31T13:03:57;27.13;;;17.08;;
11247;SDS011;5681;53.316;13.950;2022-10-31T13:06:29;28.58;;;18.20;;
11247;SDS011;5681;53.316;13.950;2022-10-31T13:09:05;24.60;;;19.35;;
11247;SDS011;5681;53.316;13.950;2022-10-31T13:11:34;27.20;;;18.75;;
11247;SDS011;5681;53.316;13.950;2022-10-31T13:14:04;26.10;;;18.08;;
11247;SDS011;5681;53.316;13.950;2022-10-31T13:16:33;27.50;;;20.10;;
11247;SDS011;5681;53.316;13.950;2022-10-31T13:19:03;39.92;;;22.17;;
11247;SDS011;5681;53.316;13.950;2022-10-31T13:21:35;29.73;;;20.75;;
11247;SDS011;5681;53.316;13.950;2022-10-31T13:24:07;32.38;;;22.23;;
11247;SDS011;5681;53.316;13.950;2022-10-31T13:26:40;41.47;;;26.80;;
11247;SDS011;5681;53.316;13.950;2022-10-31T13:29:13;40.53;;;30.60;;
11247;SDS011;5681;53.316;13.950;2022-10-31T13:31:43;43.65;;;33.78;;
11247;SDS011;5681;53.316;13.950;2022-10-31T13:34:12;57.80;;;44.78;;
11247;SDS011;5681;53.316;13.950;2022-10-31T13:36:46;54.75;;;42.53;;
11247;SDS011;5681;53.316;13.950;2022-10-31T13:39:21;51.30;;;35.80;;
11247;SDS011;5681;53.316;13.950;2022-10-31T13:41:51;50.15;;;30.48;;
11247;SDS011;5681;53.316;13.950;2022-10-31T13:44:20;51.00;;;31.50;;
11247;SDS011;5681;53.316;13.950;2022-10-31T13:46:49;47.28;;;35.17;;
11247;SDS011;5681;53.316;13.950;2022-10-31T13:49:23;47.50;;;36.70;;
11247;SDS011;5681;53.316;13.950;2022-10-31T13:51:51;50.33;;;32.92;;
11247;SDS011;5681;53.316;13.950;2022-10-31T13:54:23;48.28;;;36.92;;
11247;SDS011;5681;53.316;13.950;2022-10-31T13:56:58;45.90;;;30.40;;
11247;SDS011;5681;53.316;13.950;2022-10-31T13:59:24;46.40;;;30.88;;
11247;SDS011;5681;53.316;13.950;2022-10-31T14:01:53;46.30;;;30.35;;
11247;SDS011;5681;53.316;13.950;2022-10-31T14:04:22;52.50;;;30.80;;
11247;SDS011;5681;53.316;13.950;2022-10-31T14:06:54;52.60;;;32.10;;
11247;SDS011;5681;53.316;13.950;2022-10-31T14:09:28;47.92;;;32.08;;
11247;SDS011;5681;53.316;13.950;2022-10-31T14:11:57;49.17;;;30.10;;
11247;SDS011;5681;53.316;13.950;2022-10-31T14:14:29;46.70;;;30.15;;
11247;SDS011;5681;53.316;13.950;2022-10-31T14:16:58;46.53;;;31.17;;
11247;SDS011;5681;53.316;13.950;2022-10-31T14:19:25;45.45;;;28.95;;
11247;SDS011;5681;53.316;13.950;2022-10-31T14:21:52;43.38;;;29.27;;
11247;SDS011;5681;53.316;13.950;2022-10-31T14:24:34;47.10;;;30.30;;
11247;SDS011;5681;53.316;13.950;2022-10-31T14:27:02;46.58;;;31.42;;
11247;SDS011;5681;53.316;13.950;2022-10-31T14:29:31;40.45;;;28.33;;
11247;SDS011;5681;53.316;13.950;2022-10-31T14:31:59;43.75;;;30.50;;
11247;SDS011;5681;53.316;13.950;2022-10-31T14:34:33;40.90;;;29.60;;
11247;SDS011;5681;53.316;13.950;2022-10-31T14:37:08;42.88;;;28.77;;